横田飛行場の過去48時間の天気

横田飛行場 (Yokota)

現在時刻: 1/23 14:58 JST (1/23 05:58 UTC) 以下の時間は現地時間です。

過去48時間のMETAR気象情報
時間 風向 風速(m/s) 視程 気温(℃) 湿度(%) 気圧(hPa) 天気現象
23 13:56 南西 5 10km以上 8.4 53 1003.3
23 12:56 静穏 0 10km以上 4.6 84 1003.4
23 11:56 3 6,450m 2.1 92 1004.5 もや
23 10:56 6 10km以上 2.2 98 1005.6
23 09:56 南南西 5 10km以上 3.3 100 1006.8
23 08:56 静穏 0 10km以上 -0.7 99 1007.7
23 08:37 2 8,050m -1 100 1008.1 もや
23 08:26 静穏 0 600m -2 100 1008.4
23 08:11 静穏 0 6,450m -3 100 1008.8 もや
23 07:56 静穏 0 4,850m -2 99 1008.7 もや
23 06:56 静穏 0 4,850m -4.8 99 1009.6 もや
23 06:48 南南東 2 4,000m -5 100 1009.6 もや
23 06:34 2 600m -5 100 1009.6
23 06:28 2 600m -5 100 1009.6
23 06:22 2 600m -5 100 1009.6
23 06:07 静穏 0 400m -3 100 1009.5
23 05:56 静穏 0 600m -3.7 99 1009.6
23 05:47 静穏 0 400m -5 100 1009.6
23 05:37 静穏 0 400m -4 100 1009.2
23 05:26 南東 2 800m -3 100 1008.8
23 04:56 2 1,000m -3 99 1008.8 もや
23 04:31 静穏 0 10km以上 -1 100 1009.4
23 04:16 南西 3 3,200m -3 100 1009.5 もや
23 04:08 南南西 2 600m -3 100 1009.2
23 03:58 静穏 0 3,600m -2 100 1009.4 もや
23 03:44 静穏 0 600m -2 100 1009.1
23 02:58 南南西 2 4,850m -2 100 1009.8 もや
23 02:41 静穏 0 1,200m -3 100 1009.5 もや
23 02:33 静穏 0 800m -3 100 1009.2
23 02:25 静穏 0 8,050m -1 100 1009.1 もや
23 02:10 静穏 0 3,600m -2 100 1009.4 もや
23 02:08 南南西 2 1,800m -2 100 1009.4 もや
23 01:56 静穏 0 10km以上 -0.3 98 1009.4
23 00:56 北西 2 10km以上 1.2 94 1009.4
23 00:29 西北西 3 10km以上 1 93 1009.3
23 00:14 北北西 3 10km以上 1 93 1009.6
23 00:11 北北西 3 10km以上 1 93 1009.6
22 23:56 北北西 4 10km以上 1.2 95 1009.6
22 23:43 北北西 4 10km以上 1 100 1010
22 22:56 3 10km以上 0.6 99 1010.3 弱い雨
22 22:11 4 10km以上 0 100 1011.1 弱い雪
22 21:56 4 3,200m 0.1 99 1010.7 弱い雪
22 21:42 北北東 5 3,200m 0 100 1010.7 弱い雪
22 21:27 4 2,000m 0 100 1011 弱い雪
22 20:56 北北西 4 200m -0.4 99 1012 弱い雪 もや
22 19:56 北北西 5 200m -0.8 99 1013.4 弱い雪 もや
22 19:25 6 200m -1 100 1013.4 弱い雪 もや
22 18:56 北北西 7 200m -1 99 1014.5 弱い雪 もや
22 17:56 5 200m -1.1 99 1015.8
22 16:56 6 200m -1 99 1016.8
22 16:12 5 200m -1 100 1017.5 強い雪
22 15:56 5 200m -0.8 99 1017.2 強い雪 もや
22 15:36 5 200m -1 100 1017.9 強い雪 もや
22 14:56 5 200m -0.7 99 1018.2 強い雪 もや
22 13:56 4 400m -0.2 99 1018.5 強い雪 もや
22 13:32 4 400m 0 100 1018.8 強い雪 もや
22 12:56 北北西 4 400m -0.1 99 1019.8 強い雪
22 12:36 北北西 4 400m 0 100 1020.5 雪 もや
22 12:14 4 400m 0 100 1020.5 弱い雪 もや
22 11:56 北北東 4 1,600m 0.6 95 1020.8 弱い雪
22 10:56 北北西 3 1,600m 0 94 1022.5 弱い雪 もや
22 10:44 北北西 3 1,600m 0 93 1022.8 弱い雪 もや
22 10:30 4 1,600m 0 93 1022.8 弱い雪 もや
22 10:26 3 1,600m 0 86 1023.2 弱い雪 もや
22 09:56 北北東 4 3,200m 0.3 82 1023.5 弱い雪
22 08:56 北北東 4 4,850m 2 65 1023 弱い雪
22 08:45 3 10km以上 3 56 - 降水
22 08:26 北北西 4 10km以上 3 52 -
22 07:56 2 10km以上 2.6 53 1023.1
22 06:56 北西 2 10km以上 1.8 61 1023
22 06:46 西北西 2 10km以上 2 60 1022.7
22 06:10 西北西 3 10km以上 1 69 1022.4
22 05:56 西 3 10km以上 0.9 71 1022.4
22 04:56 静穏 0 10km以上 0.7 73 1021.6
22 03:56 静穏 0 10km以上 0.7 60 1020.9
22 02:56 静穏 0 10km以上 1.2 71 1020.5
22 01:56 静穏 0 10km以上 1.5 75 1020.9
22 00:56 静穏 0 10km以上 2.4 53 1020.5
21 23:56 北東 5 10km以上 3.3 49 1020.2
21 22:56 北東 6 10km以上 4.1 45 1020.2
21 22:02 北東 6 10km以上 4 48 1019.6
21 21:56 北東 7 10km以上 4.5 48 1019.6
21 20:56 北北東 6 10km以上 4.3 53 1019.6
21 19:56 北北東 4 10km以上 3.7 66 1019.7
21 19:20 北北西 3 10km以上 3 70 1018.8
21 18:56 北西 2 10km以上 6.8 58 1018
21 18:44 北北西 3 10km以上 7 57 1017.9
21 17:56 2 10km以上 7.4 51 1017.3
21 17:26 南南西 3 10km以上 8 53 1016.6
21 16:56 南南西 4 10km以上 8.7 49 1016.2
21 15:56 南南東 3 10km以上 10.7 36 1015.8
RJTY 230456Z AUTO 22009KT 10SM FEW100 08/M01 A2960 RMK AO2 SLP033 T00841006 FZRANO $
RJTY 230356Z AUTO 00000KT 8SM CLR 05/02 A2960 RMK AO2 SLP034 T00460021 FZRANO $
RJTY 230256Z COR AUTO 36005KT 4SM BR CLR 02/01 A2963 RMK AO2 SLP045 T00210009 FZRANO $ COR 0314
RJTY 230156Z 36012KT 7SM CLR 02/02 A2966 RMK AO2A SLP056 T00220019 FZRANO $
RJTY 230056Z 21010KT 10SM CLR 03/03 A2970 RMK AO2A SLP068 T00330033 FZRANO $
RJTY 222356Z AUTO 00000KT 8SM CLR M01/M01 A2972 RMK AO2 SLP077 70006 T10071008 11003 21057 58016 FZRANO $
RJTY 222337Z AUTO 17003KT 5SM BR CLR M01/M01 A2973 RMK AO2 SLP081 FZRANO $
RJTY 222326Z AUTO 00000KT 3/8SM R36/1000V4500FT M CLR M02/M02 A2974 RMK AO2 VIS 3/8V7/8 SLP084 FZRANO $
RJTY 222311Z COR AUTO 00000KT 4SM R36/0600VP6000FT BR FEW000 M03/M03 A2975 RMK AO2 SLP088 FZRANO $ COR 2330
RJTY 222256Z 00000KT 3SM BR FEW000 M02/M02 A2975 RMK AO2A VIS 1 3/4 RWY18 SLP087 T10201021 FZRANO $
RJTY 222156Z 00000KT 3SM BR CLR M05/M05 A2977 RMK AO2A VIS 1/8 RWY18 SLP096 T10481049 FZRANO $
RJTY 222148Z 16003KT 2 1/2SM BR CLR M05/M05 A2977 RMK AO2A VIS 1/2V1 3/4 VIS 1/8 RWY18 SLP096 FZRANO $
RJTY 222134Z AUTO 19003KT 3/8SM R36/1600V3500FT M CLR M05/M05 A2977 RMK AO2 SLP096 FZRANO $
RJTY 222128Z AUTO 19003KT 3/8SM R36/1600V2800FT M CLR M05/M05 A2977 RMK AO2 SLP096 FZRANO $
RJTY 222122Z AUTO 18003KT 3/8SM R36/1200V2400FT M FEW001 M05/M05 A2977 RMK AO2 SLP096 FZRANO $
RJTY 222107Z AUTO 00000KT 1/4SM R36/1200V1800FT M BKN002 M03/M03 A2977 RMK AO2 SLP095 FZRANO $
RJTY 222056Z AUTO 00000KT 3/8SM R36/1800V3000FT M BKN002 M04/M04 A2977 RMK AO2 SLP096 T10371038 55002 FZRANO $
RJTY 222047Z AUTO 00000KT 1/4SM R36/1400V1800FT M SCT001 M05/M05 A2977 RMK AO2 SLP096 FZRANO $
RJTY 222037Z AUTO 00000KT 1/4SM R36/M0100V3000FT M FEW000 M04/M04 A2976 RMK AO2 SLP092 FZRANO $
RJTY 222026Z AUTO 14003KT 1/2SM R36/2200V3000FT M CLR M03/M03 A2975 RMK AO2 SLP088 FZRANO $
RJTY 221956Z AUTO 17004KT 5/8SM R36/1400V2800FT BR CLR M03/M03 A2975 RMK AO2 VIS 5/8V7 SLP088 T10301031 FZRANO $
RJTY 221931Z AUTO 00000KT 10SM CLR M01/M01 A2977 RMK AO2 SLP094 FZRANO $
RJTY 221916Z AUTO 23005KT 2SM BR CLR M03/M03 A2977 RMK AO2 VIS 3/8V2 VIS 1/4 RWY18 SLP095 FZRANO $
RJTY 221908Z AUTO 21003KT 3/8SM R36/1400V3000FT M CLR M03/M03 A2976 RMK AO2 VIS 3/8V2 1/2 SLP092 FZRANO $
RJTY 221858Z AUTO 00000KT 2 1/4SM BR CLR M02/M02 A2977 RMK AO2 VIS 1/4V2 1/4 VIS 3/4 RWY18 SLP094 FZRANO $
RJTY 221844Z AUTO 00000KT 3/8SM R36/1400V4500FT M SCT065 M02/M02 A2976 RMK AO2 VIS 3/8V7 SLP091 FZRANO $
RJTY 221758Z AUTO 20004KT 3SM BR OVC065 M02/M02 A2978 RMK AO2 VIS 2 1/2 RWY18 SLP098 FZRANO $
RJTY 221741Z AUTO 00000KT 3/4SM R36/2800V5500FT BR BKN065 M03/M03 A2977 RMK AO2 VIS 1/2V1 1/2 SLP095 FZRANO $
RJTY 221733Z AUTO 00000KT 1/2SM R36/1800V3000FT M SCT065 M03/M03 A2976 RMK AO2 VIS 1/2V6 SLP092 FZRANO $
RJTY 221725Z AUTO 00000KT 5SM BR FEW065 M01/M01 A2976 RMK AO2 VIS 5/8 RWY18 SLP091 FZRANO $
RJTY 221710Z AUTO 00000KT 2 1/4SM BR CLR M02/M02 A2977 RMK AO2 VIS 3/4V3 SLP094 FZRANO $
RJTY 221708Z AUTO 21003KT 1 1/8SM R36/5000FT BR CLR M02/M02 A2977 RMK AO2 VIS 3/4V5 SLP094 FZRANO $
RJTY 221656Z AUTO 00000KT 8SM FEW045 FEW075 00/M01 A2977 RMK AO2 SLP094 T10031006 FZRANO $
RJTY 221556Z AUTO 32004KT 10SM FEW055 BKN075 BKN095 01/00 A2977 RMK AO2 SLP094 P0001 T00120003 FZRANO $
RJTY 221529Z AUTO 30005KT 10SM SCT020 SCT065 01/00 A2977 RMK AO2 SLP093 FZRANO $
RJTY 221514Z AUTO 33005KT 10SM FEW009 BKN020 01/00 A2978 RMK AO2 BKN V OVC SLP096 FZRANO $
RJTY 221511Z AUTO 33005KT 10SM SCT013 BKN020 01/00 A2978 RMK AO2 BKN V OVC SLP096 FZRANO $
RJTY 221456Z AUTO 34008KT 10SM OVC016 01/01 A2978 RMK AO2 RAE07SNB07E17RAB17E43 SLP096 P0000 60000 T00120005 400321011 57023 FZRANO $
RJTY 221443Z AUTO 34007KT 10SM OVC020 01/01 A2979 RMK AO2 RAE07SNB07E17RAB17E43 SLP100 FZRANO $
RJTY 221356Z AUTO 35006KT 10SM -RA OVC020 01/01 A2980 RMK AO2 SNE41RAB41 SLP103 P0000 T00060005 FZRANO $
RJTY 221311Z AUTO 01008KT 9SM -SN OVC015 00/00 A2982 RMK AO2 SLP111 FZRANO $
RJTY 221256Z 36007KT 2SM -SN OVC017 00/00 A2981 RMK AO2A SLP107 P0000 T00010000 FZRANO $
RJTY 221242Z 02009KT 2SM -SN OVC017 00/00 A2981 RMK AO2A SLP107 FZRANO $
RJTY 221227Z 01008KT 1 1/4SM -SN OVC012 00/00 A2982 RMK AO2A SLP110 FZRANO $
RJTY 221156Z 34008KT 1/8SM -SN BR OVC007 00/00 A2985 RMK AO2A SLP120 P0001 60003 4/012 T10041005 11003 21011 57037 FZRANO $
RJTY 221056Z 33010KT 1/8SM -SN BR OVC007 M01/M01 A2989 RMK AO2A SLP134 P0000 T10081009 FZRANO $
RJTY 221025Z 35012G17KT 1/8SM -SN BR OVC009 M01/M01 A2989 RMK AO2A PRESFR SLP134 FZRANO $
RJTY 220956Z 34013KT 1/8SM -SN BR OVC008 M01/M01 A2992 RMK AO2A SLP145 P0001 T10101011 FZRANO $
RJTY 220856Z 36009KT 1/8SM SN OVC006 M01/M01 A2996 RMK AO2A SLP158 P0001 60001 T10111012 57023 PWINO FZRANO $
RJTY 220756Z 35011KT 1/8SM VV005 M01/M01 A2999 RMK AO2A SLP168 P0000 T10101011 PWINO FZRANO $
RJTY 220712Z COR 35010KT 1/8SM +SN VV005 M01/M01 A3001 RMK AO2A SLP175 PWINO FZRANO $ COR 0727
RJTY 220656Z 35010KT 1/8SM +SN BR OVC004 M01/M01 A3000 RMK AO2A PRESFR SLP172 P0000 T10081009 FZRANO $
RJTY 220636Z COR 36009KT 1/8SM +SN BR OVC004 M01/M01 A3002 RMK AO2A SLP179 FZRANO $ COR 0651
RJTY 220556Z 35009KT 1/8SM +SN BR OVC005 M01/M01 A3003 RMK AO2A VIS 3/4 RWY18 SLP182 P0000 60002 4/004 T10071008 10020 21008 57027 FZRANO $
RJTY 220456Z 01008KT M1/4SM +SN BR OVC005 00/00 A3004 RMK AO2A VIS 1 1/8 RWY18 SLP185 P0001 T10021003 FZRANO $
RJTY 220432Z COR AUTO 36008KT M1/4SM +SN BR OVC005 00/00 A3005 RMK AO2 VIS 3/4V1 1/4 CIG 003 RWY18 SLP188 FZRANO $ COR 0451
RJTY 220356Z 33007KT M1/4SM +SN SCT005 OVC008 00/00 A3008 RMK AO2A SNE0256SNB0259 CIG 005 RWY18 SLP198 P0000 T10011002 FZRANO $
RJTY 220336Z 33007KT 1/4SM SN BR SCT005 OVC008 00/00 A3010 RMK AO2A SNE0256SNB0259 CIG 009V011 CIG 007 RWY18 SLP205 FZRANO $
RJTY 220314Z 36008KT 1/4SM -SN BR SCT006 OVC008 00/00 A3010 RMK AO2A VIS 2 1/4V3 SNE0256SNB0259 CIG 008 RWY18 SLP205 FZRANO $
RJTY 220256Z 02008KT 1SM -SN SCT006 OVC008 01/00 A3011 RMK AO2A SNE41 CIG 007 RWY18 SLP208 P0001 60001 T00061001 FZRANO $
RJTY 220156Z 33006KT 1SM -SN BR OVC008 00/M01 A3016 RMK AO2A VIS 2 1/2V3 CIG 010 RWY18 SLP225 P0000 T00001009 FZRANO $
RJTY 220144Z 33005KT 1SM -SN BR OVC008 00/M01 A3017 RMK AO2A VIS 2 1/2 RWY18 CIG 010 RWY18 SLP228 FZRANO $
RJTY 220130Z 35008KT 1SM -SN BR OVC019 00/M01 A3017 RMK AO2A VIS 2 1/2 RWY18 OVC V BKN CIG 012 RWY18 SLP228 FZRANO $
RJTY 220126Z 35006KT 1SM -SN BR OVC020 00/M02 A3018 RMK AO2A OVC V BKN CIG 012 RWY18 PRESFR SLP232 FZRANO $
RJTY 220056Z 02008KT 2SM -SN SCT021 OVC026 00/M02 A3019 RMK AO2A SNE13SNB28E38SNB49 SLP235 P0000 T00031024 FZRANO $
RJTY 212356Z 03007KT 3SM -SN OVC028 02/M04 A3020 RMK AO2A UPB45E48SNB48 SLPNO P0000 60000 T00201039 10028 21001 FZRANO $
RJTY 212345Z AUTO 01005KT 10SM -UP OVC028 03/M05 M RMK AO2 UPB45 CIG 026 RWY18 SLPNO FZRANO $
RJTY 212326Z AUTO 34007KT 10SM OVC028 03/M06 M RMK AO2 SLPNO FZRANO $
RJTY 212256Z AUTO 35003KT 10SM BKN030 OVC047 03/M06 A3018 RMK AO2 SLP231 T00261060 FZRANO $
RJTY 212156Z AUTO 31004KT 10SM OVC048 02/M05 A3018 RMK AO2 SLP230 T00181049 FZRANO $
RJTY 212146Z AUTO 29004KT 10SM OVC047 02/M05 A3017 RMK AO2 SLP227 FZRANO $
RJTY 212110Z AUTO 30005KT 10SM R36/4500FT FEW050 01/M04 A3016 RMK AO2 SLP224 FZRANO $
RJTY 212056Z AUTO 27005KT 10SM CLR 01/M04 A3016 RMK AO2 SLP224 T00091038 53016 FZRANO $
RJTY 211956Z AUTO 00000KT 10SM CLR 01/M04 A3014 RMK AO2 SLP216 T00071036 FZRANO $
RJTY 211856Z AUTO 00000KT 10SM CLR 01/M06 A3012 RMK AO2 SLP209 T00071062 FZRANO $
RJTY 211756Z AUTO 00000KT 10SM CLR 01/M03 A3011 RMK AO2 SLP205 T00121035 10047 20008 50005 FZRANO $
RJTY 211656Z AUTO 00000KT 10SM BKN170 02/M02 A3012 RMK AO2 SLP209 T00151025 FZRANO $
RJTY 211556Z AUTO 00000KT 10SM CLR 02/M06 A3011 RMK AO2 SLP205 T00241062 FZRANO $
RJTY 211456Z AUTO 05009KT 10SM CLR 03/M06 A3010 RMK AO2 SLP202 T00331064 401141016 53007 FZRANO $
RJTY 211356Z AUTO 04011KT 10SM CLR 04/M07 A3010 RMK AO2 SLP202 T00411068 FZRANO $
RJTY 211302Z AUTO 04012KT 10SM CLR 04/M06 A3008 RMK AO2 SLP196 FZRANO $
RJTY 211256Z AUTO 04013KT 10SM R36/4500FT CLR 05/M06 A3008 RMK AO2 SLP196 T00451056 FZRANO $
RJTY 211156Z AUTO 02011KT 10SM R36/4500FT CLR 04/M04 A3008 RMK AO2 SLP196 T00431044 10111 20019 51024 FZRANO $
RJTY 211056Z AUTO 02008KT 10SM R36/4500FT CLR 04/M02 A3008 RMK AO2 SLP197 T00371021 FZRANO $
RJTY 211020Z AUTO 34006KT 10SM R36/4500FT CLR 03/M02 A3005 RMK AO2 SLP188 FZRANO $
RJTY 210956Z AUTO 32004KT 10SM CLR 07/M01 A3003 RMK AO2 SLP180 T00681009 FZRANO $
RJTY 210944Z AUTO 33005KT 10SM CLR 07/M01 A3003 RMK AO2 SLP179 FZRANO $
RJTY 210856Z AUTO 19003KT 10SM R36/4500FT CLR 07/M02 A3001 RMK AO2 SLP173 T00741021 53011 FZRANO $
RJTY 210826Z AUTO 20006KT 10SM R36/4500FT CLR 08/M01 A2999 RMK AO2 SLP166 FZRANO $
RJTY 210756Z AUTO 20007KT 10SM CLR 09/M01 A2998 RMK AO2 SLP162 T00871014 FZRANO $
RJTY 210656Z AUTO 15005KT 10SM CLR 11/M04 A2997 RMK AO2 SLP158 T01071038 FZRANO $